Time;durP1;ratioP1;P1;durP2;ratioP2;P2;SDS_P1;SDS_P2;PMS_P1;PMS_P2;Temp;Humidity;BMP_temperature;BMP_pressure;BME280_temperature;BME280_humidity;BME280_pressure;Samples;Min_cycle;Max_cycle;Signal;HPM_P1;HPM_P2
2022/12/23 00:00:07;;;;;;;;;0.00;0.00;;;;;14.49;100.00;100412.28;5099696;27;45447;-81
2022/12/23 00:02:33;;;;;;;;;0.00;0.00;;;;;14.55;100.00;100417.84;5103227;27;45321;-81
2022/12/23 00:04:58;;;;;;;;;0.00;0.00;;;;;14.33;100.00;100388.66;5101762;27;46037;-81
2022/12/23 00:07:23;;;;;;;;;0.33;0.33;;;;;14.51;100.00;100420.09;5101949;27;46265;-82
2022/12/23 00:09:48;;;;;;;;;2.00;0.00;;;;;14.46;100.00;100419.91;5099286;27;45278;-82
2022/12/23 00:15:04;;;;;;;;;2.00;0.67;;;;;14.46;100.00;100419.91;5102444;27;45397;-81
2022/12/23 00:17:30;;;;;;;;;1.00;1.00;;;;;14.44;100.00;100414.78;5102063;27;46478;-81
2022/12/23 00:19:55;;;;;;;;;0.00;0.00;;;;;14.46;100.00;100418.03;5102046;27;45495;-80
2022/12/23 00:23:03;;;;;;;;;1.00;0.00;;;;;14.42;100.00;100422.16;5089992;27;45324;-80
2022/12/23 00:25:06;;;;;;;;;1.00;1.00;;;;;14.52;100.00;100424.44;5098094;27;45492;-80
2022/12/23 00:27:31;;;;;;;;;2.00;1.00;;;;;14.56;100.00;100427.50;5102309;27;45345;-80
2022/12/23 00:29:56;;;;;;;;;0.00;0.00;;;;;14.57;100.00;100424.63;5102502;27;45445;-80
2022/12/23 00:32:22;;;;;;;;;0.00;0.00;;;;;14.65;100.00;100428.91;5102472;27;45437;-80
2022/12/23 00:34:47;;;;;;;;;0.00;0.00;;;;;14.61;100.00;100423.16;5101413;27;45622;-80
2022/12/23 00:37:12;;;;;;;;;0.00;0.00;;;;;14.69;100.00;100430.13;5101202;27;45398;-80
2022/12/23 00:45:15;;;;;;;;;0.33;0.33;;;;;14.59;100.00;100425.25;5089154;27;45358;-80
2022/12/23 00:50:27;;;;;;;;;0.00;0.00;;;;;14.50;100.00;100421.97;5101169;27;45380;-80
2022/12/23 00:52:53;;;;;;;;;0.00;0.00;;;;;14.55;100.00;100425.84;5102874;27;45516;-80
2022/12/23 00:55:18;;;;;;;;;0.00;0.00;;;;;14.50;100.00;100421.97;5098258;27;46369;-80
2022/12/23 00:57:44;;;;;;;;;0.00;0.00;;;;;14.41;100.00;100420.53;5101105;27;45431;-80
2022/12/23 01:00:10;;;;;;;;;1.67;0.00;;;;;14.48;100.00;100434.72;5098474;27;45358;-80
2022/12/23 01:05:37;;;;;;;;;0.00;0.00;;;;;14.46;100.00;100434.09;5096425;27;45372;-79
2022/12/23 01:08:09;;;;;;;;;0.00;0.00;;;;;14.45;100.00;100434.28;5098598;27;48355;-80
2022/12/23 01:10:39;;;;;;;;;0.00;0.00;;;;;14.51;100.00;100455.69;5100524;27;45385;-79
2022/12/23 01:13:05;;;;;;;;;0.00;0.00;;;;;14.55;100.00;100457.94;5099495;27;45375;-79
2022/12/23 01:15:31;;;;;;;;;0.00;0.00;;;;;14.55;100.00;100471.31;5092368;27;45477;-79
2022/12/23 01:17:57;;;;;;;;;0.33;0.33;;;;;14.56;100.00;100476.47;5095921;27;45340;-80
2022/12/23 01:20:22;;;;;;;;;1.00;1.00;;;;;14.58;100.00;100466.34;5100911;27;45354;-80
2022/12/23 01:22:48;;;;;;;;;1.50;1.50;;;;;14.39;100.00;100433.28;5101332;27;46593;-81
2022/12/23 01:25:13;;;;;;;;;4.00;1.00;;;;;14.68;100.00;100482.00;5093686;27;45322;-81
2022/12/23 01:27:39;;;;;;;;;2.00;2.00;;;;;14.60;100.00;100463.47;5097523;27;45561;-81
2022/12/23 01:30:05;;;;;;;;;1.75;1.75;;;;;14.63;100.00;100468.41;5100158;27;45307;-80
2022/12/23 01:32:30;;;;;;;;;2.67;2.33;;;;;14.58;100.00;100455.66;5101781;27;45331;-81
2022/12/23 01:34:56;;;;;;;;;2.00;2.00;;;;;14.59;100.00;100459.16;5103456;27;45420;-81
2022/12/23 01:37:21;;;;;;;;;2.00;1.67;;;;;14.64;100.00;100465.53;5101334;27;47181;-81
2022/12/23 01:39:47;;;;;;;;;0.50;0.50;;;;;14.59;100.00;100457.31;5101692;27;45763;-80
2022/12/23 01:45:04;;;;;;;;;0.00;0.00;;;;;14.49;100.00;100462.28;5103724;27;45409;-80
2022/12/23 01:47:45;;;;;;;;;0.00;0.00;;;;;14.48;100.00;100466.78;5101306;27;47321;-80
2022/12/23 01:50:15;;;;;;;;;0.00;0.00;;;;;14.46;100.00;100470.72;5102578;27;45193;-80
2022/12/23 01:53:19;;;;;;;;;0.00;0.00;;;;;14.46;100.00;100468.84;5105469;27;45333;-80
2022/12/23 01:55:59;;;;;;;;;0.00;0.00;;;;;14.46;100.00;100482.22;5088837;27;45364;-80
2022/12/23 01:58:28;;;;;;;;;0.00;0.00;;;;;14.41;100.00;100467.81;5101798;27;45496;-80
2022/12/23 02:03:43;;;;;;;;;0.00;0.00;;;;;14.42;100.00;100472.16;5102909;27;45392;-81
2022/12/23 02:09:19;;;;;;;;;0.67;0.67;;;;;14.46;100.00;100479.53;5093118;27;45339;-80
2022/12/23 02:12:00;;;;;;;;;1.00;1.00;;;;;14.45;100.00;100472.56;5099225;27;45398;-80
2022/12/23 02:17:43;;;;;;;;;1.00;1.00;;;;;14.43;100.00;100463.94;5095860;27;45397;-80
2022/12/23 02:20:24;;;;;;;;;2.00;2.00;;;;;14.46;100.00;100471.50;5106827;27;48588;-81
2022/12/23 02:23:36;;;;;;;;;0.67;0.67;;;;;14.36;100.00;100455.06;5107180;27;45400;-80
2022/12/23 02:26:41;;;;;;;;;2.00;1.00;;;;;14.50;100.00;100464.75;5087245;27;45469;-80
2022/12/23 02:29:25;;;;;;;;;1.33;1.33;;;;;14.51;100.00;100461.03;5087926;27;45324;-81
2022/12/23 02:32:01;;;;;;;;;2.00;1.00;;;;;14.55;100.00;100460.63;5095110;27;46160;-79
2022/12/23 02:34:48;;;;;;;;;1.00;1.00;;;;;14.50;100.00;100442.53;5105604;27;45331;-82
2022/12/23 02:37:32;;;;;;;;;4.00;2.67;;;;;14.54;100.00;100451.75;5102878;27;45304;-80
2022/12/23 02:40:05;;;;;;;;;2.00;1.33;;;;;14.51;100.00;100455.69;5096735;27;45377;-81
2022/12/23 02:43:00;;;;;;;;;2.00;2.00;;;;;14.50;100.00;100455.91;5100461;27;45621;-81
2022/12/23 02:45:35;;;;;;;;;1.00;1.00;;;;;14.41;100.00;100447.25;5056754;27;46308;-81
2022/12/23 02:48:16;;;;;;;;;4.00;3.00;;;;;14.36;100.00;100429.16;5083718;27;45358;-83
2022/12/23 02:50:44;;;;;;;;;1.00;1.00;;;;;14.48;100.00;100453.41;5090477;27;45513;-82
2022/12/23 02:53:24;;;;;;;;;3.00;3.00;;;;;14.42;100.00;100442.75;5106995;27;47594;-81
2022/12/23 02:55:53;;;;;;;;;3.33;1.67;;;;;14.36;100.00;100425.66;5094148;27;45481;-81
2022/12/23 02:58:26;;;;;;;;;1.33;1.33;;;;;14.49;100.00;100443.56;5091445;27;45338;-81
2022/12/23 03:00:52;;;;;;;;;2.00;1.00;;;;;14.46;100.00;100442.09;5106121;27;46589;-82
2022/12/23 03:03:19;;;;;;;;;1.67;1.67;;;;;14.35;100.00;100430.22;5103898;27;46284;-83
2022/12/23 03:05:47;;;;;;;;;1.67;1.00;;;;;14.42;100.00;100440.88;5102054;27;45402;-82
2022/12/23 03:08:17;;;;;;;;;2.00;1.00;;;;;14.48;100.00;100452.59;5087585;27;45383;-81
2022/12/23 03:10:54;;;;;;;;;1.00;1.00;;;;;14.50;100.00;100453.22;5100852;27;45467;-83
2022/12/23 03:13:35;;;;;;;;;0.67;0.67;;;;;14.49;100.00;100454.25;5102131;27;45676;-82
2022/12/23 03:16:19;;;;;;;;;4.00;1.67;;;;;14.49;100.00;100449.72;5100350;27;46220;-82
2022/12/23 03:18:50;;;;;;;;;1.33;1.33;;;;;14.48;100.00;100445.41;5092686;27;45521;-82
2022/12/23 03:21:28;;;;;;;;;1.00;1.00;;;;;14.49;100.00;100448.91;5100288;27;46138;-82
2022/12/23 03:24:06;;;;;;;;;1.00;1.00;;;;;14.48;100.00;100416.00;5104514;27;46203;-82
2022/12/23 03:26:39;;;;;;;;;5.00;1.00;;;;;14.61;100.00;100430.38;5101085;27;45282;-82
2022/12/23 03:29:13;;;;;;;;;1.00;1.00;;;;;14.71;100.00;100433.44;5101469;27;45353;-82
2022/12/23 03:31:40;;;;;;;;;1.50;0.75;;;;;14.51;100.00;100401.38;5105553;27;47559;-82
2022/12/23 03:34:11;;;;;;;;;2.00;2.00;;;;;14.61;100.00;100422.34;5102782;27;45447;-82
2022/12/23 03:36:51;;;;;;;;;2.00;2.00;;;;;14.68;100.00;100428.50;5102659;27;45277;-82
2022/12/23 03:39:20;;;;;;;;;4.67;1.67;;;;;14.68;100.00;100433.84;5103043;27;45307;-83
2022/12/23 03:42:02;;;;;;;;;1.00;0.00;;;;;14.56;100.00;100411.44;5102489;27;45403;-82
2022/12/23 03:44:33;;;;;;;;;2.00;2.00;;;;;14.67;100.00;100426.88;5101394;27;46859;-83
2022/12/23 03:47:13;;;;;;;;;2.00;2.00;;;;;14.66;100.00;100429.75;5102123;27;45279;-82
2022/12/23 03:49:51;;;;;;;;;2.00;1.67;;;;;14.56;100.00;100428.31;5102482;27;45371;-82
2022/12/23 03:52:21;;;;;;;;;1.00;1.00;;;;;14.70;100.00;100452.38;5102348;27;45420;-82
2022/12/23 03:54:56;;;;;;;;;5.00;3.00;;;;;14.65;100.00;100455.66;5101156;27;47146;-83
2022/12/23 03:57:29;;;;;;;;;2.67;2.00;;;;;14.68;100.00;100457.09;5102099;27;45274;-82
2022/12/23 03:59:54;;;;;;;;;2.67;1.00;;;;;14.56;100.00;100432.84;5102151;27;45446;-82
2022/12/23 04:02:26;;;;;;;;;3.33;1.67;;;;;14.67;100.00;100455.47;5102135;27;45584;-82
2022/12/23 04:05:16;;;;;;;;;2.00;1.00;;;;;14.69;100.00;100453.41;5102032;27;45630;-82
2022/12/23 04:08:17;;;;;;;;;2.00;1.00;;;;;14.66;100.00;100446.59;5101715;27;45376;-82
2022/12/23 04:10:42;;;;;;;;;1.00;1.00;;;;;14.57;100.00;100437.16;5101133;27;45388;-82
2022/12/23 04:13:07;;;;;;;;;2.00;2.00;;;;;14.59;100.00;100435.09;5101672;27;45478;-82
2022/12/23 04:15:39;;;;;;;;;1.00;1.00;;;;;14.61;100.00;100443.75;5097263;27;48360;-82
2022/12/23 04:18:04;;;;;;;;;1.67;1.67;;;;;14.56;100.00;100441.69;5094435;27;45421;-82
2022/12/23 04:20:29;;;;;;;;;4.00;2.00;;;;;14.53;100.00;100420.72;5080488;27;45346;-82
2022/12/23 04:22:55;;;;;;;;;2.00;2.00;;;;;14.52;100.00;100414.53;5095713;27;47145;-81
2022/12/23 04:25:20;;;;;;;;;3.33;2.00;;;;;14.49;100.00;100417.63;5096981;27;47248;-81
2022/12/23 04:27:45;;;;;;;;;1.00;1.00;;;;;14.48;100.00;100421.34;5097110;27;45389;-82
2022/12/23 04:30:12;;;;;;;;;2.00;2.00;;;;;14.40;100.00;100400.19;5101804;27;45440;-82
2022/12/23 04:32:38;;;;;;;;;0.67;0.00;;;;;14.44;100.00;100414.78;5101326;27;45503;-81
2022/12/23 04:35:04;;;;;;;;;0.00;0.00;;;;;14.39;100.00;100422.56;5100401;27;47355;-82
2022/12/23 04:37:29;;;;;;;;;1.00;1.00;;;;;14.43;100.00;100433.69;5101710;27;45417;-82
2022/12/23 04:39:54;;;;;;;;;2.33;2.00;;;;;14.30;100.00;100413.16;5099958;27;45224;-82
2022/12/23 04:42:20;;;;;;;;;3.00;3.00;;;;;14.44;100.00;100448.69;5100428;27;45501;-82
2022/12/23 04:44:45;;;;;;;;;3.00;3.00;;;;;14.39;100.00;100434.09;5101400;27;45252;-81
2022/12/23 04:47:10;;;;;;;;;3.00;3.00;;;;;14.45;100.00;100439.63;5101520;27;45242;-82
2022/12/23 04:49:36;;;;;;;;;4.67;3.00;;;;;14.42;100.00;100429.38;5097031;27;45251;-82
2022/12/23 04:52:01;;;;;;;;;3.00;1.33;;;;;14.27;100.00;100414.38;5095089;27;47477;-82
2022/12/23 04:54:26;;;;;;;;;2.33;2.33;;;;;14.36;100.00;100425.66;5099778;27;47052;-82
2022/12/23 04:56:52;;;;;;;;;1.67;1.67;;;;;14.35;100.00;100418.69;5085898;27;45228;-82
2022/12/23 04:59:18;;;;;;;;;3.00;3.00;;;;;14.32;100.00;100417.25;5088488;27;45258;-82
2022/12/23 05:01:43;;;;;;;;;3.67;3.00;;;;;14.23;100.00;100394.44;5099503;27;46591;-81
2022/12/23 05:04:09;;;;;;;;;5.33;3.67;;;;;14.29;100.00;100406.13;5101330;27;45510;-84
2022/12/23 05:06:35;;;;;;;;;3.00;3.00;;;;;14.27;100.00;100401.84;5100282;27;46321;-82
2022/12/23 05:09:01;;;;;;;;;3.00;2.00;;;;;14.17;100.00;100389.91;5087795;27;45387;-82
2022/12/23 05:11:26;;;;;;;;;0.67;0.67;;;;;14.22;100.00;100401.63;5099615;27;45403;-83
2022/12/23 05:13:52;;;;;;;;;4.00;4.00;;;;;14.16;100.00;100390.94;5099274;27;47111;-82
2022/12/23 05:16:17;;;;;;;;;3.00;3.00;;;;;13.96;100.00;100368.56;5097929;27;45910;-82
2022/12/23 05:18:43;;;;;;;;;3.67;3.00;;;;;14.25;100.00;100424.47;5099784;27;45484;-81
2022/12/23 05:21:08;;;;;;;;;2.00;2.00;;;;;14.26;100.00;100415.41;5097185;27;46130;-82
2022/12/23 05:23:33;;;;;;;;;1.00;0.00;;;;;14.21;100.00;100410.66;5100614;27;45465;-82
2022/12/23 05:25:59;;;;;;;;;2.33;2.33;;;;;14.26;100.00;100407.38;5100475;27;45280;-81
2022/12/23 05:28:24;;;;;;;;;1.00;1.00;;;;;14.19;100.00;100404.69;5099534;27;45499;-82
2022/12/23 05:31:00;;;;;;;;;5.00;5.00;;;;;14.21;100.00;100394.63;5100503;27;45368;-82
2022/12/23 05:33:26;;;;;;;;;1.00;1.00;;;;;14.29;100.00;100401.63;5100786;27;45375;-82
2022/12/23 05:35:51;;;;;;;;;3.00;3.00;;;;;14.29;100.00;100400.78;5100983;27;45332;-82
2022/12/23 05:38:17;;;;;;;;;4.67;3.00;;;;;14.26;100.00;100394.84;5099123;27;45555;-82
2022/12/23 05:40:42;;;;;;;;;5.67;4.67;;;;;14.20;100.00;100381.47;5085309;27;46500;-81
2022/12/23 05:43:07;;;;;;;;;2.00;2.00;;;;;14.28;100.00;100391.97;5100321;27;46286;-81
2022/12/23 05:45:36;;;;;;;;;3.33;3.33;;;;;14.25;100.00;100385.16;5100597;27;45217;-82
2022/12/23 05:48:02;;;;;;;;;2.33;1.00;;;;;14.28;100.00;100381.28;5101017;27;45456;-82
2022/12/23 05:50:27;;;;;;;;;2.00;1.00;;;;;14.39;100.00;100393.16;5097309;27;47222;-81
2022/12/23 05:52:56;;;;;;;;;2.00;1.67;;;;;14.36;100.00;100375.69;5099567;27;46585;-82
2022/12/23 05:55:23;;;;;;;;;5.00;2.00;;;;;14.38;100.00;100383.50;5100481;27;45325;-82
2022/12/23 05:57:49;;;;;;;;;2.67;2.00;;;;;14.36;100.00;100375.69;5100391;27;45395;-82
2022/12/23 06:00:14;;;;;;;;;1.33;1.33;;;;;14.35;100.00;100363.38;5097119;27;45394;-82
2022/12/23 06:02:40;;;;;;;;;1.33;1.33;;;;;14.46;100.00;100377.94;5089708;27;45409;-81
2022/12/23 06:05:06;;;;;;;;;1.00;1.00;;;;;14.24;100.00;100337.25;5098721;27;45345;-81
2022/12/23 06:07:31;;;;;;;;;2.00;2.00;;;;;14.48;100.00;100375.88;5100260;27;45376;-82
2022/12/23 06:09:57;;;;;;;;;0.00;0.00;;;;;14.48;100.00;100375.88;5099722;27;45476;-82
2022/12/23 06:12:22;;;;;;;;;0.33;0.00;;;;;14.27;100.00;100335.00;5100485;27;46557;-82
2022/12/23 06:14:47;;;;;;;;;2.00;2.00;;;;;14.39;100.00;100361.91;5087548;27;45406;-82
2022/12/23 06:17:13;;;;;;;;;3.00;2.00;;;;;14.44;100.00;100368.50;5100531;27;45769;-81
2022/12/23 06:19:38;;;;;;;;;2.00;0.00;;;;;14.48;100.00;100367.03;5099961;27;45403;-82
2022/12/23 06:22:03;;;;;;;;;1.00;0.00;;;;;14.40;100.00;100362.75;5100258;27;45268;-82
2022/12/23 06:24:29;;;;;;;;;1.33;1.33;;;;;14.46;100.00;100364.56;5098305;27;45783;-82
2022/12/23 06:26:54;;;;;;;;;3.00;3.00;;;;;14.52;100.00;100376.31;5100568;27;45280;-82
2022/12/23 06:29:20;;;;;;;;;2.00;2.00;;;;;14.45;100.00;100362.94;5092054;27;46143;-82
2022/12/23 06:31:46;;;;;;;;;1.33;0.67;;;;;14.53;100.00;100377.94;5111924;27;47814;-82
2022/12/23 06:34:11;;;;;;;;;2.33;2.33;;;;;14.52;100.00;100376.31;5094339;27;45316;-82
2022/12/23 06:36:37;;;;;;;;;2.00;2.00;;;;;14.51;100.00;100359.44;5086475;27;45425;-83
2022/12/23 06:39:02;;;;;;;;;1.00;1.00;;;;;14.51;100.00;100370.13;5099724;27;45488;-83
2022/12/23 06:41:28;;;;;;;;;2.67;2.67;;;;;14.42;100.00;100349.97;5086067;27;47152;-83
2022/12/23 06:43:53;;;;;;;;;2.00;2.00;;;;;14.53;100.00;100364.56;5098925;27;45408;-85
2022/12/23 06:46:18;;;;;;;;;3.33;3.33;;;;;14.42;100.00;100344.63;5100257;27;45329;-84
2022/12/23 06:48:44;;;;;;;;;2.67;1.00;;;;;14.31;100.00;100316.69;5098204;27;46049;-84
2022/12/23 06:51:10;;;;;;;;;2.33;2.33;;;;;14.60;100.00;100351.16;5091520;27;46531;-84
2022/12/23 06:53:35;;;;;;;;;1.00;1.00;;;;;14.64;100.00;100357.75;5092988;27;45720;-83
2022/12/23 06:56:02;;;;;;;;;2.00;2.00;;;;;14.69;100.00;100357.13;5077688;28;45285;-81
2022/12/23 06:58:28;;;;;;;;;1.33;1.33;;;;;14.69;100.00;100354.44;5094344;27;45349;-86
2022/12/23 07:00:54;;;;;;;;;1.67;1.67;;;;;14.70;100.00;100351.53;5098231;27;48032;-83
2022/12/23 07:03:19;;;;;;;;;1.00;1.00;;;;;14.58;100.00;100342.53;5085566;27;45672;-84
2022/12/23 07:05:49;;;;;;;;;1.00;1.00;;;;;14.72;100.00;100349.47;5096800;27;45247;-83
2022/12/23 07:08:15;;;;;;;;;0.00;0.00;;;;;14.74;100.00;100344.75;5089515;27;45339;-81
2022/12/23 07:10:41;;;;;;;;;0.33;0.33;;;;;14.74;100.00;100341.25;5097330;27;48386;-82
2022/12/23 07:13:06;;;;;;;;;2.00;0.00;;;;;14.75;100.00;100338.34;5085387;27;45485;-83
2022/12/23 07:15:31;;;;;;;;;1.00;1.00;;;;;14.71;100.00;100320.28;5089478;27;45506;-82
2022/12/23 07:17:57;;;;;;;;;1.00;1.00;;;;;14.73;100.00;100324.38;5088905;27;45366;-82
2022/12/23 07:20:22;;;;;;;;;1.00;1.00;;;;;14.74;100.00;100319.84;5105326;27;46861;-81
2022/12/23 07:22:49;;;;;;;;;1.00;1.00;;;;;14.70;100.00;100310.63;5102840;27;45414;-81
2022/12/23 07:25:15;;;;;;;;;1.00;1.00;;;;;14.72;100.00;100313.88;5103461;27;45303;-81
2022/12/23 07:27:40;;;;;;;;;1.00;1.00;;;;;14.73;100.00;100316.34;5104082;27;47020;-82
2022/12/23 07:30:08;;;;;;;;;0.33;0.33;;;;;14.82;100.00;100325.00;5101989;27;47178;-82
2022/12/23 07:32:33;;;;;;;;;0.33;0.33;;;;;14.72;100.00;100300.50;5092700;27;45604;-82
2022/12/23 07:34:59;;;;;;;;;1.33;1.33;;;;;14.82;100.00;100310.78;5101770;27;45356;-81
2022/12/23 07:37:24;;;;;;;;;2.00;2.00;;;;;14.78;100.00;100307.72;5103257;27;45369;-81
2022/12/23 07:39:49;;;;;;;;;1.00;1.00;;;;;14.77;100.00;100314.91;5103217;27;46483;-85
2022/12/23 07:42:15;;;;;;;;;0.00;0.00;;;;;14.83;100.00;100320.47;5102693;27;45302;-84
2022/12/23 07:44:40;;;;;;;;;0.67;0.00;;;;;14.82;100.00;100319.66;5085509;27;45421;-81
2022/12/23 07:47:06;;;;;;;;;0.00;0.00;;;;;14.89;100.00;100327.63;5090212;27;46071;-86
2022/12/23 07:49:31;;;;;;;;;1.67;1.67;;;;;14.91;100.00;100325.56;5090888;27;46403;-86
2022/12/23 07:51:56;;;;;;;;;0.33;0.33;;;;;14.89;100.00;100322.28;5101496;27;45972;-87
2022/12/23 07:54:22;;;;;;;;;0.67;0.67;;;;;14.94;100.00;100329.66;5094725;27;45291;-85
2022/12/23 07:56:47;;;;;;;;;0.67;0.67;;;;;14.84;100.00;100306.88;5099635;27;46047;-87
2022/12/23 07:59:13;;;;;;;;;1.00;0.00;;;;;14.75;100.00;100287.53;5087853;27;47309;-86
2022/12/23 08:01:38;;;;;;;;;0.67;0.67;;;;;14.86;100.00;100301.31;5103229;27;45349;-86
2022/12/23 08:04:03;;;;;;;;;1.00;1.00;;;;;14.93;100.00;100318.13;5088368;27;45323;-86
2022/12/23 08:06:29;;;;;;;;;0.67;0.67;;;;;14.80;100.00;100305.66;5101169;27;47154;-86
2022/12/23 08:08:54;;;;;;;;;1.00;1.00;;;;;14.94;100.00;100324.31;5087487;27;48090;-87
2022/12/23 08:11:19;;;;;;;;;2.00;2.00;;;;;14.96;100.00;100316.88;5089766;27;45164;-86
2022/12/23 08:13:47;;;;;;;;;2.33;1.33;;;;;14.97;100.00;100310.50;5100187;27;45355;-85
2022/12/23 08:16:12;;;;;;;;;0.00;0.00;;;;;14.89;100.00;100292.84;5101891;27;45271;-83
2022/12/23 08:18:40;;;;;;;;;0.00;0.00;;;;;14.93;100.00;100295.94;5101021;27;46258;-84
2022/12/23 08:21:11;;;;;;;;;0.00;0.00;;;;;15.01;100.00;100293.81;5102806;27;45387;-83
2022/12/23 08:23:36;;;;;;;;;0.00;0.00;;;;;14.97;100.00;100284.56;5087091;27;45260;-86
2022/12/23 08:26:12;;;;;;;;;1.00;1.00;;;;;15.05;100.00;100286.16;5096388;27;46404;-86
2022/12/23 08:28:39;;;;;;;;;1.00;0.67;;;;;14.88;100.00;100257.25;5094524;27;45456;-87
2022/12/23 08:31:34;;;;;;;;;0.00;0.00;;;;;14.86;100.00;100242.44;5096792;27;45756;-88
2022/12/23 08:34:05;;;;;;;;;0.00;0.00;;;;;14.61;100.00;100211.09;5099327;27;45368;-87
2022/12/23 08:36:33;;;;;;;;;1.00;1.00;;;;;14.68;100.00;100205.69;5089061;27;45299;-76
2022/12/23 08:39:00;;;;;;;;;1.00;1.00;;;;;14.91;100.00;100239.13;5100694;27;45554;-76
2022/12/23 08:41:29;;;;;;;;;0.33;0.33;;;;;15.00;100.00;100257.38;5100561;27;45423;-75
2022/12/23 08:43:55;;;;;;;;;0.00;0.00;;;;;15.07;100.00;100261.88;5100863;27;45286;-76
2022/12/23 08:46:22;;;;;;;;;0.00;0.00;;;;;15.10;100.00;100262.28;5100350;27;45344;-76
2022/12/23 08:48:47;;;;;;;;;0.00;0.00;;;;;15.08;100.00;100255.50;5100791;27;45334;-76
2022/12/23 08:51:15;;;;;;;;;0.00;0.00;;;;;15.09;100.00;100247.22;5099803;27;45298;-76
2022/12/23 08:53:41;;;;;;;;;0.00;0.00;;;;;15.09;100.00;100252.56;5113317;27;45284;-76
2022/12/23 08:56:10;;;;;;;;;0.00;0.00;;;;;15.17;100.00;100248.03;5101524;27;45360;-76
2022/12/23 08:58:40;;;;;;;;;0.00;0.00;;;;;15.18;100.00;100253.16;5101003;27;45321;-75
2022/12/23 09:01:08;;;;;;;;;0.00;0.00;;;;;15.18;100.00;100249.66;5091199;27;45480;-77
2022/12/23 09:03:34;;;;;;;;;0.00;0.00;;;;;15.12;100.00;100243.31;5097164;27;45309;-77
2022/12/23 09:06:08;;;;;;;;;0.00;0.00;;;;;15.20;100.00;100244.91;5101099;27;45337;-76
2022/12/23 09:08:34;;;;;;;;;1.00;0.00;;;;;15.21;100.00;100234.00;5098981;27;48080;-76
2022/12/23 09:11:00;;;;;;;;;0.00;0.00;;;;;15.24;100.00;100238.09;5100960;27;45288;-76
2022/12/23 09:13:25;;;;;;;;;0.00;0.00;;;;;15.25;100.00;100237.88;5100823;27;45214;-76
2022/12/23 09:15:51;;;;;;;;;0.00;0.00;;;;;15.22;100.00;100216.06;5095162;27;47384;-76
2022/12/23 09:18:16;;;;;;;;;0.00;0.00;;;;;15.22;100.00;100191.97;5100971;27;46112;-75
2022/12/23 09:20:41;;;;;;;;;0.00;0.00;;;;;15.25;100.00;100191.53;5100258;27;45258;-75
2022/12/23 09:23:06;;;;;;;;;0.00;0.00;;;;;15.22;100.00;100182.09;5098687;27;45346;-75
2022/12/23 09:25:34;;;;;;;;;0.00;0.00;;;;;15.32;100.00;100181.59;5099500;27;46076;-76
2022/12/23 09:27:59;;;;;;;;;0.00;0.00;;;;;15.33;100.00;100152.97;5079949;27;45416;-76
2022/12/23 09:30:25;;;;;;;;;0.00;0.00;;;;;15.29;100.00;100139.19;5092743;27;45911;-75
2022/12/23 09:32:50;;;;;;;;;0.00;0.00;;;;;15.25;100.00;100130.78;5096193;27;45295;-75
2022/12/23 09:35:16;;;;;;;;;1.00;1.00;;;;;15.32;100.00;100140.63;5090979;27;46145;-76
2022/12/23 09:37:41;;;;;;;;;0.00;0.00;;;;;15.32;100.00;100156.69;5088275;27;45328;-75
2022/12/23 09:40:11;;;;;;;;;0.00;0.00;;;;;15.38;100.00;100178.03;5095229;27;45381;-80
2022/12/23 09:42:52;;;;;;;;;0.00;0.00;;;;;15.39;100.00;100192.25;5078365;27;45368;-81
2022/12/23 09:45:30;;;;;;;;;0.00;0.00;;;;;15.41;100.00;100198.19;5079798;27;45393;-80
2022/12/23 09:47:56;;;;;;;;;0.00;0.00;;;;;15.40;100.00;100189.34;5097074;27;46121;-79
2022/12/23 09:50:28;;;;;;;;;0.00;0.00;;;;;15.46;100.00;100197.53;5097747;27;45854;-80
2022/12/23 09:53:07;;;;;;;;;0.67;0.00;;;;;15.43;100.00;100224.75;5087969;27;45408;-80
2022/12/23 09:55:35;;;;;;;;;0.00;0.00;;;;;15.51;100.00;100246.69;5099436;27;45436;-80
2022/12/23 09:58:08;;;;;;;;;0.00;0.00;;;;;15.52;100.00;100221.59;5099651;27;45372;-80
2022/12/23 10:00:57;;;;;;;;;0.00;0.00;;;;;15.47;100.00;100220.59;5096737;27;45666;-80
2022/12/23 10:03:31;;;;;;;;;0.00;0.00;;;;;15.57;100.00;100238.84;5100482;27;45436;-80
2022/12/23 10:06:10;;;;;;;;;0.00;0.00;;;;;15.58;100.00;100227.91;5099417;27;45479;-80
2022/12/23 10:08:37;;;;;;;;;0.00;0.00;;;;;15.52;100.00;100221.59;5079179;27;45303;-82
2022/12/23 10:11:30;;;;;;;;;0.00;0.00;;;;;15.57;100.00;100222.78;5096172;27;45248;-81
2022/12/23 10:14:09;;;;;;;;;0.00;0.00;;;;;15.65;100.00;100226.00;5085373;27;45457;-81
2022/12/23 10:16:41;;;;;;;;;0.00;0.00;;;;;15.71;100.00;100226.16;5082661;27;45278;-80
2022/12/23 10:19:19;;;;;;;;;0.75;0.75;;;;;15.74;100.00;100228.38;5098638;27;46097;-81
2022/12/23 10:21:51;;;;;;;;;0.00;0.00;;;;;15.71;100.00;100204.72;5099952;27;45352;-80
2022/12/23 10:24:30;;;;;;;;;0.00;0.00;;;;;15.77;100.00;100214.53;5088834;27;45445;-80
2022/12/23 10:27:00;;;;;;;;;0.00;0.00;;;;;15.74;100.00;100201.56;5078211;27;46067;-82
2022/12/23 10:29:29;;;;;;;;;0.00;0.00;;;;;15.77;100.00;100191.25;5081714;27;45482;-81
2022/12/23 10:32:13;;;;;;;;;0.00;0.00;;;;;15.83;100.00;100196.78;5079557;27;45521;-79
2022/12/23 10:34:59;;;;;;;;;0.00;0.00;;;;;15.86;100.00;100196.31;5098179;27;45609;-81
2022/12/23 10:37:37;;;;;;;;;0.00;0.00;;;;;15.88;100.00;100195.06;5098926;27;47214;-81
2022/12/23 10:40:26;;;;;;;;;0.00;0.00;;;;;15.90;100.00;100186.78;5097953;27;47449;-82
2022/12/23 10:43:03;;;;;;;;;0.00;0.00;;;;;15.91;100.00;100185.75;5088635;27;45278;-83
2022/12/23 10:45:40;;;;;;;;;0.00;0.00;;;;;15.83;100.00;100180.69;5101690;27;45215;-80
2022/12/23 10:48:30;;;;;;;;;0.00;0.00;;;;;15.82;100.00;100185.22;5101537;27;46486;-80
2022/12/23 10:51:14;;;;;;;;;0.00;0.00;;;;;15.82;100.00;100193.25;5088920;27;47510;-79
2022/12/23 10:53:51;;;;;;;;;0.00;0.00;;;;;15.76;100.00;100186.94;5087829;27;45441;-80
2022/12/23 10:56:18;;;;;;;;;0.00;0.00;;;;;15.73;100.00;100190.06;5086502;27;45435;-80
2022/12/23 10:58:48;;;;;;;;;0.00;0.00;;;;;15.76;100.00;100192.31;5097664;27;45560;-81
2022/12/23 11:01:16;;;;;;;;;0.00;0.00;;;;;15.75;100.00;100196.00;5081282;27;47860;-81
2022/12/23 11:03:45;;;;;;;;;0.00;0.00;;;;;15.75;100.00;100193.31;5101833;27;45305;-81
2022/12/23 11:06:11;;;;;;;;;1.00;1.00;;;;;15.75;100.00;100204.03;5103048;27;45479;-81
2022/12/23 11:08:38;;;;;;;;;0.00;0.00;;;;;15.72;100.00;100179.56;5088699;27;45336;-79
2022/12/23 11:11:06;;;;;;;;;1.00;1.00;;;;;15.80;100.00;100186.50;5101583;27;47464;-81
2022/12/23 11:13:34;;;;;;;;;0.00;0.00;;;;;15.84;100.00;100174.28;5102954;27;45283;-80
2022/12/23 11:16:20;;;;;;;;;0.00;0.00;;;;;15.89;100.00;100163.69;5102988;27;45412;-79
2022/12/23 11:19:13;;;;;;;;;0.00;0.00;;;;;15.85;100.00;100155.31;5103036;27;45286;-79
2022/12/23 11:21:53;;;;;;;;;0.00;0.00;;;;;15.99;100.00;100182.81;5101253;27;48772;-81
2022/12/23 11:24:21;;;;;;;;;0.00;0.00;;;;;16.00;100.00;100181.75;5102305;27;45160;-81
2022/12/23 11:26:59;;;;;;;;;0.00;0.00;;;;;16.00;100.00;100188.97;5101841;27;45513;-80
2022/12/23 11:29:29;;;;;;;;;1.00;0.00;;;;;16.03;100.00;100196.56;5100946;27;46554;-80
2022/12/23 11:31:55;;;;;;;;;0.00;0.00;;;;;16.08;100.00;100193.22;5101085;27;48638;-79
2022/12/23 11:34:23;;;;;;;;;0.00;0.00;;;;;16.11;100.00;100207.00;5102539;27;45452;-80
2022/12/23 11:36:57;;;;;;;;;0.00;0.00;;;;;16.16;100.00;100203.63;5102711;27;45343;-83
2022/12/23 11:39:28;;;;;;;;;0.00;0.00;;;;;16.15;100.00;100199.31;5100630;27;47223;-80
2022/12/23 11:42:11;;;;;;;;;0.50;0.00;;;;;16.09;100.00;100189.47;5102088;27;46710;-80
2022/12/23 11:44:47;;;;;;;;;0.25;0.25;;;;;16.12;100.00;100184.50;5100953;27;45306;-80
2022/12/23 11:47:21;;;;;;;;;0.00;0.00;;;;;16.26;100.00;100200.44;5090524;27;45397;-79
2022/12/23 11:49:55;;;;;;;;;2.75;0.00;;;;;16.24;100.00;100203.34;5082212;27;45354;-80
2022/12/23 11:52:32;;;;;;;;;1.67;0.33;;;;;16.33;100.00;100227.13;5085445;27;45379;-80
2022/12/23 11:55:00;;;;;;;;;0.00;0.00;;;;;16.33;100.00;100208.38;5084682;27;45858;-79